To NAV CANADA Home Page Login to a new session Search on AWWS site Disclaimer Vers la page française équivalente Tips FAQ What's new on the site To the Forecasts and Observations / NOTAM section To "File a Flight Plan" website Publications and other links Update of the User's profile FIC Telephone Numbers My Weather Data Folder Route Weather Data Regional Weather Data Local Weather Data To the Forecasts and Observations / NOTAM section
Request Generated 01/26/2021 at 21:18:47 UTC . Weather information available at that time is displayed.

METAR/TAF

BAGOTVILLE/QC    

METAR CYBG 262100Z 00000KT 15SM BKN028 M07/M11 A3004 RMK SC6 SLP185=
METAR CYBG 262000Z 00000KT 15SM BKN018 BKN032 M07/M11 A3004 RMK SC5SC2 SLP186=
METAR CYBG 261900Z 31002KT 15SM BKN018 BKN024 M07/M11 A3006 RMK SC6SC1 SLP193=

TAF CYBG 262030Z 2621/2718 VRB03KT P6SM BKN015 OVC030 TEMPO 2621/2622
FEW015 BKN030
FM262200 VRB03KT P6SM SCT015 OVC020 TEMPO 2622/2718 P6SM -SN
BKN015
RMK NXT FCST BY 270000Z=
Your time UTC time
Weather data provided by Environment Canada and NAV CANADA